Lake Havasu City, AZ (86405)

7:32 AM MST on September 16, 2014 (GMT -0700)
PVS @ Gatewood | Change Station
CLOSE
Current Station
Personal Weather Station
Location: Lake Havasu City, AZ
Elevation: 1076 ft
Nearby Weather Stations
Active Advisory: Flash Flood Watch Active Notice: Record Report

Elev 1076 ft 34.50 °N, 114.30 °W | Updated 3 seconds ago

Clear
Clear
86.4 °F
Feels Like 90 °F
N
1.0
Wind Variable Wind from South
Gusts 8.0 mph

Today
High -- | Low -- °F
--% Chance of Precip.
Yesterday
High -- | Low -- °F
Precip. -- in
6:21 AM 6:42 PM
Last Quarter, 45% visible
Pressure 29.77 in
Visibility 10.0 miles
Clouds Clear
Heat Index 90 °F
Dew Point 68 °F
Humidity 55%
Rainfall 0.00 in
Snow Depth 0 in , 1 in , 0 in
UV 0 out of 12
Pollen 6.30 out of 12
Air Quality Not available.
Flu Activity Not available.
METAR KEED 161356Z AUTO 22008KT 10SM CLR 32/18 A2988 RMK AO2 SLP079 T03170183

More Conditions Fewer Conditions

Pressure 29.77 in
Visibility 10.0 miles
Clouds Clear
Heat Index 90 °F
Dew Point 68 °F
Humidity 55%
Rainfall 0.00 in
Snow Depth 0 in , 1 in , 0 in
UV 0 out of 12
Pollen 6.30 out of 12
Air Quality Not available.
Flu Activity Not available.
METAR KEED 161356Z AUTO 22008KT 10SM CLR 32/18 A2988 RMK AO2 SLP079 T03170183

More Conditions Fewer Conditions

10-Day Weather Forecast

Almanac

Astronomy

Sep. 16, 2014 Rise Set
Actual Time 6:21 AM MST 6:42 PM MST
Civil Twilight 5:55 AM MST 7:07 PM MST
Nautical Twilight 5:26 AM MST 7:37 PM MST
Astronomical Twilight 4:56 AM MST 8:07 PM MST
Moon No Moon Rise 1:58 PM MST
Length of Visible Light 13h 11m
Length of Day
12h 21m
Tomorrow will be 2m 8s shorter.
Last Quarter, 45% of the Moon is Illuminated
Today
Last Quarter
Sep 24
New
Oct 1
First Quarter
Oct 8
Full
Oct 15
Last Quarter

Today's Extremes

State Highs State Lows

Community

WunderPhotos

Upload Photos

1,753,789 photos uploaded!

Nearby

Snow Depth

Station Depth Elevation
Snowslide Canyon 0 in 9730 ft
Promontory 0 in 7930 ft
Workman Creek 1 in 6900 ft
Wildcat 0 in 7850 ft
White Horse Lake 0 in 7180 ft

Earthquake Activity

City Distance Mag. Time & Date
No recent earthquake activity has been reported nearby.
Minimum magnitude displayed is 2.5.

Coastal Water Temperatures

Place Temperature
No Stations Reporting

Nearby Weather Stations